Time;durP1;ratioP1;P1;durP2;ratioP2;P2;SDS_P1;SDS_P2;PMS_P1;PMS_P2;Temp;Humidity;BMP_temperature;BMP_pressure;BME280_temperature;BME280_humidity;BME280_pressure;Samples;Min_cycle;Max_cycle;Signal;HPM_P1;HPM_P2
2022/04/21 00:00:20;;;;;;;9.50;5.07;;;;;;;;;;5049370;28;20046;-82
2022/04/21 00:02:49;;;;;;;11.85;5.47;;;;;;;;;;5038749;28;20100;-82
2022/04/21 00:05:18;;;;;;;11.30;6.00;;;;;;;;;;5033554;28;20057;-82
2022/04/21 00:07:48;;;;;;;8.45;5.00;;;;;;;;;;5032144;28;20109;-82
2022/04/21 00:10:18;;;;;;;15.75;5.80;;;;;;;;;;5032561;28;20050;-82
2022/04/21 00:12:47;;;;;;;9.98;4.80;;;;;;;;;;5032229;28;20506;-81
2022/04/21 00:15:15;;;;;;;10.23;5.82;;;;;;;;;;5032325;28;20080;-82
2022/04/21 00:17:44;;;;;;;14.23;5.70;;;;;;;;;;5032041;28;20132;-82
2022/04/21 00:20:13;;;;;;;14.32;5.78;;;;;;;;;;5033117;28;20103;-81
2022/04/21 00:25:29;;;;;;;11.80;5.18;;;;;;;;;;5034582;28;20092;-82
2022/04/21 00:27:57;;;;;;;9.52;5.28;;;;;;;;;;5052240;28;20056;-82
2022/04/21 00:30:26;;;;;;;10.02;5.45;;;;;;;;;;5052632;28;20228;-82
2022/04/21 00:32:54;;;;;;;10.32;4.72;;;;;;;;;;5052915;28;20084;-82
2022/04/21 00:35:26;;;;;;;8.15;4.88;;;;;;;;;;5037795;28;20060;-82
2022/04/21 00:37:54;;;;;;;10.52;4.93;;;;;;;;;;5051297;28;20076;-82
2022/04/21 00:40:26;;;;;;;10.75;5.00;;;;;;;;;;5052195;28;20081;-82
2022/04/21 00:42:56;;;;;;;9.75;5.07;;;;;;;;;;5045210;28;20046;-82
2022/04/21 00:45:25;;;;;;;9.63;4.55;;;;;;;;;;5032475;28;20069;-82
2022/04/21 00:47:54;;;;;;;8.60;4.72;;;;;;;;;;5031368;28;20049;-82
2022/04/21 00:50:23;;;;;;;6.88;4.53;;;;;;;;;;5032466;28;20084;-81
2022/04/21 00:52:52;;;;;;;10.85;4.65;;;;;;;;;;5051830;28;20087;-82
2022/04/21 00:55:21;;;;;;;11.73;5.25;;;;;;;;;;5051707;28;20045;-82
2022/04/21 00:57:50;;;;;;;11.50;4.95;;;;;;;;;;5050945;28;20107;-82
2022/04/21 01:00:20;;;;;;;11.35;4.57;;;;;;;;;;5052968;28;20076;-81
2022/04/21 01:02:49;;;;;;;8.40;5.10;;;;;;;;;;5052394;28;20044;-82
2022/04/21 01:05:18;;;;;;;11.80;5.85;;;;;;;;;;5051355;28;20572;-82
2022/04/21 01:07:46;;;;;;;14.48;6.45;;;;;;;;;;5045787;28;20072;-82
2022/04/21 01:10:15;;;;;;;18.98;6.90;;;;;;;;;;5031753;28;20053;-82
2022/04/21 01:12:44;;;;;;;12.48;6.20;;;;;;;;;;5032006;28;20547;-82
2022/04/21 01:15:12;;;;;;;13.85;6.55;;;;;;;;;;5042505;28;20132;-82
2022/04/21 01:17:42;;;;;;;15.60;6.82;;;;;;;;;;5051221;28;20140;-82
2022/04/21 01:20:10;;;;;;;14.02;5.85;;;;;;;;;;5051193;28;20091;-82
2022/04/21 01:22:40;;;;;;;12.75;6.57;;;;;;;;;;5051725;28;20072;-82
2022/04/21 01:25:08;;;;;;;12.18;5.80;;;;;;;;;;5042936;28;20521;-82
2022/04/21 01:27:37;;;;;;;12.80;6.10;;;;;;;;;;5048851;28;20098;-82
2022/04/21 01:30:07;;;;;;;13.15;6.63;;;;;;;;;;5050621;28;20053;-82
2022/04/21 01:32:36;;;;;;;13.05;5.60;;;;;;;;;;5051578;28;20053;-82
2022/04/21 01:35:06;;;;;;;14.55;6.13;;;;;;;;;;5051386;28;20132;-82
2022/04/21 01:43:07;;;;;;;12.73;5.45;;;;;;;;;;5042571;28;20052;-82
2022/04/21 01:45:36;;;;;;;10.00;4.65;;;;;;;;;;5051365;28;20137;-82
2022/04/21 01:48:04;;;;;;;9.63;5.20;;;;;;;;;;5050768;28;20068;-82
2022/04/21 01:50:33;;;;;;;10.55;5.40;;;;;;;;;;5051237;28;20112;-82
2022/04/21 01:53:01;;;;;;;9.60;5.35;;;;;;;;;;5051573;28;20057;-82
2022/04/21 01:55:31;;;;;;;11.73;5.20;;;;;;;;;;5054784;28;20128;-82
2022/04/21 01:57:59;;;;;;;10.98;5.05;;;;;;;;;;5054385;28;20123;-82
2022/04/21 02:00:28;;;;;;;9.10;4.93;;;;;;;;;;5035750;28;20136;-82
2022/04/21 02:02:56;;;;;;;13.38;5.57;;;;;;;;;;5035628;28;20144;-82
2022/04/21 02:05:25;;;;;;;8.75;4.68;;;;;;;;;;5040517;28;20048;-82
2022/04/21 02:07:54;;;;;;;10.05;5.28;;;;;;;;;;5054863;28;20068;-82
2022/04/21 02:10:23;;;;;;;8.98;4.80;;;;;;;;;;5054699;28;20041;-82
2022/04/21 02:12:53;;;;;;;13.02;5.55;;;;;;;;;;5055121;28;20044;-82
2022/04/21 02:15:21;;;;;;;10.95;5.47;;;;;;;;;;5052122;28;20156;-82
2022/04/21 02:17:49;;;;;;;10.88;5.68;;;;;;;;;;5034231;28;20132;-82
2022/04/21 02:20:18;;;;;;;10.95;5.20;;;;;;;;;;5034405;28;20459;-82
2022/04/21 02:22:46;;;;;;;11.70;4.70;;;;;;;;;;5034927;28;20132;-82
2022/04/21 02:25:16;;;;;;;12.63;5.35;;;;;;;;;;5034587;28;20140;-81
2022/04/21 02:27:45;;;;;;;9.20;4.80;;;;;;;;;;5034027;28;20056;-82
2022/04/21 02:30:15;;;;;;;11.48;4.80;;;;;;;;;;5034836;28;20129;-81
2022/04/21 02:32:44;;;;;;;10.05;4.38;;;;;;;;;;5035310;28;20045;-82
2022/04/21 02:35:13;;;;;;;9.18;4.78;;;;;;;;;;5037083;28;20524;-82
2022/04/21 02:37:41;;;;;;;11.25;4.65;;;;;;;;;;5054051;28;20135;-82
2022/04/21 02:40:11;;;;;;;9.77;4.78;;;;;;;;;;5053963;28;20491;-82
2022/04/21 02:42:39;;;;;;;9.95;4.75;;;;;;;;;;5042009;28;20129;-82
2022/04/21 02:45:08;;;;;;;13.30;5.10;;;;;;;;;;5035168;28;20544;-82
2022/04/21 02:47:38;;;;;;;9.90;5.13;;;;;;;;;;5035007;28;20136;-82
2022/04/21 02:50:07;;;;;;;12.77;5.05;;;;;;;;;;5034370;28;20152;-82
2022/04/21 02:52:36;;;;;;;9.88;4.47;;;;;;;;;;5034001;28;20128;-82
2022/04/21 02:57:50;;;;;;;7.93;4.50;;;;;;;;;;5053337;28;20128;-82
2022/04/21 03:00:18;;;;;;;15.30;5.18;;;;;;;;;;5053807;28;20065;-82
2022/04/21 03:02:48;;;;;;;10.43;5.28;;;;;;;;;;5053611;28;20136;-82
2022/04/21 03:05:16;;;;;;;11.43;4.93;;;;;;;;;;5052411;28;20140;-82
2022/04/21 03:07:45;;;;;;;10.43;5.03;;;;;;;;;;5040313;28;20049;-82
2022/04/21 03:10:13;;;;;;;10.60;4.80;;;;;;;;;;5033940;28;20049;-82
2022/04/21 03:12:41;;;;;;;9.02;4.88;;;;;;;;;;5034097;28;20096;-82
2022/04/21 03:15:12;;;;;;;10.93;4.75;;;;;;;;;;5033814;28;20125;-82
2022/04/21 03:17:40;;;;;;;9.18;4.70;;;;;;;;;;5033510;28;20052;-82
2022/04/21 03:24:18;;;;;;;10.43;4.97;;;;;;;;;;5033363;28;20132;-82
2022/04/21 03:25:46;;;;;;;11.55;5.43;;;;;;;;;;5038345;28;20073;-82
2022/04/21 03:28:15;;;;;;;11.70;5.38;;;;;;;;;;5053502;28;20076;-82
2022/04/21 03:30:43;;;;;;;11.23;4.80;;;;;;;;;;5053772;28;20136;-82
2022/04/21 03:33:11;;;;;;;9.88;6.00;;;;;;;;;;5053700;28;20059;-81
2022/04/21 03:35:41;;;;;;;13.25;6.20;;;;;;;;;;5054176;28;20083;-81
2022/04/21 03:38:09;;;;;;;9.45;5.20;;;;;;;;;;5053309;28;20128;-82
2022/04/21 03:40:38;;;;;;;9.25;4.80;;;;;;;;;;5049194;28;20046;-82
2022/04/21 03:43:08;;;;;;;11.07;5.47;;;;;;;;;;5049599;28;20123;-82
2022/04/21 03:45:36;;;;;;;9.57;4.65;;;;;;;;;;5053056;28;20048;-82
2022/04/21 03:48:05;;;;;;;8.50;4.47;;;;;;;;;;5052432;28;20045;-82
2022/04/21 03:50:34;;;;;;;12.15;5.45;;;;;;;;;;5053483;28;20092;-82
2022/04/21 03:53:03;;;;;;;11.30;5.65;;;;;;;;;;5053119;28;20118;-82
2022/04/21 03:55:32;;;;;;;10.05;5.07;;;;;;;;;;5053312;28;20049;-82
2022/04/21 03:58:00;;;;;;;11.90;5.05;;;;;;;;;;5045537;28;20076;-81
2022/04/21 04:00:28;;;;;;;11.27;5.65;;;;;;;;;;5033276;28;20080;-82
2022/04/21 04:02:57;;;;;;;12.10;4.80;;;;;;;;;;5033041;28;20457;-82
2022/04/21 04:05:25;;;;;;;11.73;4.90;;;;;;;;;;5032747;28;20057;-82
2022/04/21 04:10:53;;;;;;;10.00;5.40;;;;;;;;;;5033321;28;20413;-82
2022/04/21 04:13:21;;;;;;;12.38;5.50;;;;;;;;;;5032616;28;20085;-82
2022/04/21 04:15:51;;;;;;;9.25;5.07;;;;;;;;;;5032483;28;20449;-82
2022/04/21 04:18:20;;;;;;;8.70;4.55;;;;;;;;;;5032147;28;20346;-82
2022/04/21 04:20:48;;;;;;;9.98;5.18;;;;;;;;;;5032926;28;20128;-82
2022/04/21 04:23:17;;;;;;;10.50;5.28;;;;;;;;;;5035214;28;20045;-82
2022/04/21 04:25:46;;;;;;;10.95;5.20;;;;;;;;;;5052341;28;20136;-82
2022/04/21 04:28:14;;;;;;;12.45;5.53;;;;;;;;;;5051814;28;20129;-82
2022/04/21 04:30:43;;;;;;;12.20;4.70;;;;;;;;;;5052263;28;20059;-82
2022/04/21 04:33:11;;;;;;;12.90;5.50;;;;;;;;;;5035726;28;20136;-82
2022/04/21 04:35:40;;;;;;;8.35;5.10;;;;;;;;;;5038742;28;20523;-82
2022/04/21 04:38:08;;;;;;;11.23;5.43;;;;;;;;;;5052396;28;20497;-81
2022/04/21 04:40:36;;;;;;;11.25;4.72;;;;;;;;;;5052595;28;20099;-82
2022/04/21 04:43:05;;;;;;;10.00;4.97;;;;;;;;;;5052210;28;20049;-82
2022/04/21 04:48:19;;;;;;;12.40;5.00;;;;;;;;;;5049565;28;20071;-82
2022/04/21 04:50:47;;;;;;;11.50;5.50;;;;;;;;;;5031782;28;20099;-81
2022/04/21 04:53:16;;;;;;;10.57;4.97;;;;;;;;;;5031768;28;20180;-82
2022/04/21 04:55:45;;;;;;;12.90;5.72;;;;;;;;;;5031808;28;20449;-82
2022/04/21 04:58:14;;;;;;;11.77;4.93;;;;;;;;;;5031001;28;20501;-82
2022/04/21 05:00:43;;;;;;;10.85;5.32;;;;;;;;;;5031771;28;20096;-82
2022/04/21 05:03:12;;;;;;;11.02;4.65;;;;;;;;;;5031505;28;20477;-82
2022/04/21 05:05:40;;;;;;;11.90;5.85;;;;;;;;;;5044371;28;20053;-82
2022/04/21 05:08:08;;;;;;;15.25;5.80;;;;;;;;;;5031966;28;20129;-82
2022/04/21 05:10:37;;;;;;;10.48;5.05;;;;;;;;;;5032407;28;20115;-82
2022/04/21 05:13:05;;;;;;;11.13;5.47;;;;;;;;;;5031923;28;20528;-82
2022/04/21 05:15:35;;;;;;;11.00;4.90;;;;;;;;;;5032162;28;20095;-82
2022/04/21 05:18:04;;;;;;;10.27;5.50;;;;;;;;;;5030947;28;20041;-82
2022/04/21 05:20:32;;;;;;;11.05;5.32;;;;;;;;;;5032071;28;20049;-82
2022/04/21 05:23:04;;;;;;;11.48;5.60;;;;;;;;;;5032242;28;20073;-82
2022/04/21 05:25:36;;;;;;;10.35;5.68;;;;;;;;;;5032060;28;20057;-82
2022/04/21 05:28:06;;;;;;;10.80;5.18;;;;;;;;;;5033523;28;20049;-82
2022/04/21 05:33:24;;;;;;;11.05;5.50;;;;;;;;;;5037303;28;20064;-81
2022/04/21 05:35:52;;;;;;;14.15;5.82;;;;;;;;;;5046587;28;20134;-82
2022/04/21 05:38:21;;;;;;;11.45;5.97;;;;;;;;;;5056382;28;20064;-82
2022/04/21 05:40:50;;;;;;;11.15;5.50;;;;;;;;;;5042953;28;20103;-82
2022/04/21 05:43:19;;;;;;;11.55;5.57;;;;;;;;;;5054438;28;20053;-82
2022/04/21 05:45:50;;;;;;;14.05;6.18;;;;;;;;;;5057700;28;20081;-82
2022/04/21 05:48:18;;;;;;;9.45;5.75;;;;;;;;;;5054768;28;20045;-82
2022/04/21 05:50:48;;;;;;;11.60;5.80;;;;;;;;;;5051184;28;20049;-81
2022/04/21 05:53:21;;;;;;;12.32;5.85;;;;;;;;;;5051148;28;20044;-82
2022/04/21 05:55:49;;;;;;;12.10;6.22;;;;;;;;;;5051332;28;20167;-82
2022/04/21 05:58:18;;;;;;;11.45;5.75;;;;;;;;;;5034046;28;20107;-82
2022/04/21 06:00:46;;;;;;;13.05;6.18;;;;;;;;;;5051163;28;20147;-82
2022/04/21 06:03:22;;;;;;;10.82;5.90;;;;;;;;;;5051411;28;20041;-82
2022/04/21 06:05:51;;;;;;;14.25;6.45;;;;;;;;;;5051604;28;20049;-82
2022/04/21 06:08:19;;;;;;;10.43;5.57;;;;;;;;;;5050545;28;20076;-82
2022/04/21 06:10:48;;;;;;;11.00;6.05;;;;;;;;;;5051154;28;20041;-82
2022/04/21 06:13:16;;;;;;;11.75;6.28;;;;;;;;;;5050369;28;20095;-82
2022/04/21 06:15:44;;;;;;;14.65;6.57;;;;;;;;;;5051555;28;20063;-82
2022/04/21 06:18:13;;;;;;;10.65;5.88;;;;;;;;;;5050261;28;20129;-82
2022/04/21 06:20:42;;;;;;;14.40;6.85;;;;;;;;;;5051716;28;20041;-82
2022/04/21 06:23:11;;;;;;;11.55;6.50;;;;;;;;;;5051544;28;20045;-82
2022/04/21 06:25:42;;;;;;;13.65;6.38;;;;;;;;;;5051087;28;20488;-82
2022/04/21 06:28:10;;;;;;;12.43;5.38;;;;;;;;;;5050585;28;20041;-82
2022/04/21 06:30:39;;;;;;;16.92;7.05;;;;;;;;;;5046985;28;20042;-82
2022/04/21 06:33:08;;;;;;;14.02;6.65;;;;;;;;;;5034432;28;20076;-82
2022/04/21 06:35:36;;;;;;;12.20;6.20;;;;;;;;;;5051033;28;20091;-82
2022/04/21 06:38:07;;;;;;;14.65;6.60;;;;;;;;;;5050510;28;20079;-82
2022/04/21 06:40:35;;;;;;;17.23;7.32;;;;;;;;;;5052063;28;20083;-82
2022/04/21 06:48:01;;;;;;;11.10;6.38;;;;;;;;;;5038556;28;20103;-81
2022/04/21 06:48:38;;;;;;;12.90;6.63;;;;;;;;;;5034551;28;20060;-82
2022/04/21 06:51:09;;;;;;;13.05;6.43;;;;;;;;;;5034958;28;20501;-82
2022/04/21 06:53:39;;;;;;;15.00;6.55;;;;;;;;;;5034566;28;20045;-82
2022/04/21 06:56:08;;;;;;;12.82;6.40;;;;;;;;;;5034933;28;20053;-82
2022/04/21 06:58:37;;;;;;;13.32;7.18;;;;;;;;;;5033971;28;20425;-82
2022/04/21 07:01:09;;;;;;;14.95;6.63;;;;;;;;;;5034487;28;20103;-82
2022/04/21 07:03:38;;;;;;;12.63;6.85;;;;;;;;;;5034261;28;20049;-81
2022/04/21 07:06:07;;;;;;;12.13;7.05;;;;;;;;;;5034476;28;20389;-81
2022/04/21 07:08:35;;;;;;;13.07;7.05;;;;;;;;;;5034609;28;20076;-82
2022/04/21 07:11:07;;;;;;;15.38;6.80;;;;;;;;;;5034010;28;20352;-82
2022/04/21 07:13:36;;;;;;;15.00;6.60;;;;;;;;;;5037596;28;20099;-82
2022/04/21 07:16:08;;;;;;;19.77;6.95;;;;;;;;;;5054896;28;20045;-82
2022/04/21 07:18:37;;;;;;;16.20;7.03;;;;;;;;;;5053419;28;20073;-82
2022/04/21 07:21:09;;;;;;;13.18;6.50;;;;;;;;;;5053242;28;20053;-82
2022/04/21 07:23:39;;;;;;;13.32;7.18;;;;;;;;;;5033247;28;20110;-82
2022/04/21 07:26:09;;;;;;;16.42;7.30;;;;;;;;;;5034350;28;20077;-82
2022/04/21 07:28:38;;;;;;;14.25;6.47;;;;;;;;;;5033320;28;20061;-82
2022/04/21 07:31:07;;;;;;;12.80;6.43;;;;;;;;;;5034174;28;20053;-82
2022/04/21 07:33:36;;;;;;;11.68;6.68;;;;;;;;;;5033323;28;20053;-82
2022/04/21 07:36:09;;;;;;;15.48;6.65;;;;;;;;;;5043858;28;20072;-82
2022/04/21 07:38:38;;;;;;;17.52;6.72;;;;;;;;;;5049054;28;20100;-82
2022/04/21 07:41:08;;;;;;;12.68;6.18;;;;;;;;;;5033982;28;20155;-82
2022/04/21 07:43:42;;;;;;;12.93;6.55;;;;;;;;;;5033821;28;20054;-82
2022/04/21 07:46:11;;;;;;;13.25;6.25;;;;;;;;;;5033729;28;20205;-82
2022/04/21 07:51:27;;;;;;;20.48;6.63;;;;;;;;;;5033472;28;20045;-82
2022/04/21 07:53:54;;;;;;;11.80;6.35;;;;;;;;;;5033558;28;20128;-82
2022/04/21 07:56:24;;;;;;;12.93;6.38;;;;;;;;;;5041418;28;20052;-82
2022/04/21 07:58:53;;;;;;;14.85;6.97;;;;;;;;;;5052728;28;20055;-81
2022/04/21 08:01:23;;;;;;;12.68;6.85;;;;;;;;;;5053838;28;20076;-82
2022/04/21 08:03:51;;;;;;;13.98;6.78;;;;;;;;;;5053037;28;20045;-82
2022/04/21 08:06:20;;;;;;;13.55;7.50;;;;;;;;;;5053786;28;20057;-82
2022/04/21 08:08:49;;;;;;;12.10;6.38;;;;;;;;;;5052829;28;20059;-82
2022/04/21 08:11:18;;;;;;;11.88;6.47;;;;;;;;;;5053347;28;20064;-82
2022/04/21 08:13:48;;;;;;;16.77;6.60;;;;;;;;;;5051133;28;20061;-82
2022/04/21 08:16:18;;;;;;;14.18;7.03;;;;;;;;;;5052866;28;20087;-82
2022/04/21 08:18:52;;;;;;;13.75;6.30;;;;;;;;;;5052375;28;20126;-82
2022/04/21 08:21:21;;;;;;;13.55;6.50;;;;;;;;;;5052764;28;20052;-82
2022/04/21 08:33:09;;;;;;;11.15;5.53;;;;;;;;;;5032540;28;20496;-82
2022/04/21 08:35:38;;;;;;;11.98;6.07;;;;;;;;;;5038908;28;20072;-82
2022/04/21 08:38:07;;;;;;;14.80;6.80;;;;;;;;;;5052297;28;20072;-82
2022/04/21 08:40:37;;;;;;;11.27;5.97;;;;;;;;;;5052663;28;20061;-82
2022/04/21 08:43:09;;;;;;;12.65;6.13;;;;;;;;;;5052508;28;20059;-82
2022/04/21 08:45:39;;;;;;;13.73;6.78;;;;;;;;;;5052429;28;20049;-82
2022/04/21 08:48:08;;;;;;;11.90;5.82;;;;;;;;;;5035397;28;20147;-82
2022/04/21 08:50:38;;;;;;;12.05;6.32;;;;;;;;;;5032340;28;20049;-82
2022/04/21 08:53:12;;;;;;;15.02;6.78;;;;;;;;;;5033546;28;20057;-82
2022/04/21 08:55:40;;;;;;;10.55;6.13;;;;;;;;;;5051911;28;20096;-82
2022/04/21 08:58:09;;;;;;;13.00;6.68;;;;;;;;;;5052214;28;20051;-82
2022/04/21 09:00:39;;;;;;;13.32;6.88;;;;;;;;;;5051989;28;20060;-82
2022/04/21 09:03:09;;;;;;;15.55;5.93;;;;;;;;;;5051430;28;20124;-82
2022/04/21 09:05:38;;;;;;;12.50;7.03;;;;;;;;;;5051995;28;20140;-82
2022/04/21 09:08:06;;;;;;;14.18;6.25;;;;;;;;;;5051745;28;20731;-82
2022/04/21 09:11:08;;;;;;;12.68;6.35;;;;;;;;;;5051866;28;20056;-82
2022/04/21 09:13:38;;;;;;;13.88;6.50;;;;;;;;;;5039960;28;20054;-82
2022/04/21 09:16:09;;;;;;;11.77;6.82;;;;;;;;;;5032308;28;20049;-82
2022/04/21 09:18:37;;;;;;;13.20;7.35;;;;;;;;;;5031345;28;20428;-82
2022/04/21 09:21:10;;;;;;;12.90;7.20;;;;;;;;;;5032374;28;20069;-82
2022/04/21 09:23:39;;;;;;;14.00;7.13;;;;;;;;;;5032013;28;20051;-82
2022/04/21 09:26:08;;;;;;;13.18;7.15;;;;;;;;;;5039482;28;20049;-82
2022/04/21 09:28:37;;;;;;;11.50;6.55;;;;;;;;;;5051477;28;20053;-82
2022/04/21 09:31:10;;;;;;;13.68;7.53;;;;;;;;;;5051817;28;20076;-82
2022/04/21 09:33:41;;;;;;;11.77;7.10;;;;;;;;;;5052297;28;20048;-82
2022/04/21 09:36:10;;;;;;;12.07;7.10;;;;;;;;;;5051660;28;20044;-82
2022/04/21 09:38:39;;;;;;;12.30;6.90;;;;;;;;;;5038273;28;20489;-81
2022/04/21 09:41:08;;;;;;;10.35;6.03;;;;;;;;;;5032374;28;20081;-82
2022/04/21 09:43:38;;;;;;;12.40;6.65;;;;;;;;;;5031811;28;20394;-82
2022/04/21 09:46:13;;;;;;;13.30;6.28;;;;;;;;;;5032237;28;20123;-82
2022/04/21 09:48:43;;;;;;;10.57;5.90;;;;;;;;;;5031247;28;20053;-82
2022/04/21 09:51:12;;;;;;;9.85;5.63;;;;;;;;;;5032258;28;20085;-82
2022/04/21 09:53:52;;;;;;;11.63;6.13;;;;;;;;;;5032478;28;20053;-82
2022/04/21 09:56:31;;;;;;;9.55;5.90;;;;;;;;;;5049845;28;20049;-82
2022/04/21 09:58:59;;;;;;;10.30;5.25;;;;;;;;;;5050884;28;20099;-82
2022/04/21 10:01:30;;;;;;;8.82;5.35;;;;;;;;;;5051526;28;20049;-82
2022/04/21 10:03:59;;;;;;;8.13;5.15;;;;;;;;;;5051772;28;20045;-82
2022/04/21 10:06:28;;;;;;;12.10;5.47;;;;;;;;;;5052087;28;20096;-82
2022/04/21 10:08:57;;;;;;;9.45;4.95;;;;;;;;;;5050626;28;20063;-82
2022/04/21 10:11:27;;;;;;;9.40;5.38;;;;;;;;;;5049018;28;20504;-82
2022/04/21 10:13:57;;;;;;;10.13;5.35;;;;;;;;;;5046093;28;20509;-82
2022/04/21 10:16:28;;;;;;;8.85;5.32;;;;;;;;;;5055520;28;20092;-82
2022/04/21 10:18:59;;;;;;;8.75;5.60;;;;;;;;;;5054733;28;20088;-81
2022/04/21 10:21:31;;;;;;;9.02;5.63;;;;;;;;;;5054326;28;20053;-81
2022/04/21 10:24:00;;;;;;;10.20;6.35;;;;;;;;;;5054783;28;20055;-82
2022/04/21 10:26:37;;;;;;;7.97;5.18;;;;;;;;;;5054892;28;20132;-82
2022/04/21 10:29:13;;;;;;;11.75;5.70;;;;;;;;;;5046587;28;20497;-82
2022/04/21 10:31:54;;;;;;;8.43;5.40;;;;;;;;;;5035184;28;20049;-82
2022/04/21 10:34:37;;;;;;;10.93;5.63;;;;;;;;;;5035018;28;20045;-82
2022/04/21 10:37:11;;;;;;;10.75;5.80;;;;;;;;;;5053488;28;20045;-82
2022/04/21 10:39:40;;;;;;;8.10;4.95;;;;;;;;;;5054475;28;20053;-82
2022/04/21 10:42:16;;;;;;;9.98;6.05;;;;;;;;;;5054513;28;20049;-82
2022/04/21 10:44:45;;;;;;;10.65;5.43;;;;;;;;;;5054440;28;20144;-82
2022/04/21 10:47:33;;;;;;;9.43;5.15;;;;;;;;;;5036636;28;20580;-82
2022/04/21 10:50:12;;;;;;;9.57;5.95;;;;;;;;;;5034127;28;20132;-82
2022/04/21 10:58:53;;;;;;;8.48;5.10;;;;;;;;;;5034676;28;20049;-82
2022/04/21 11:01:34;;;;;;;8.32;5.05;;;;;;;;;;5034394;28;20053;-82
2022/04/21 11:04:20;;;;;;;8.30;4.97;;;;;;;;;;5035697;28;20084;-82
2022/04/21 11:07:08;;;;;;;9.35;5.28;;;;;;;;;;5033858;28;20137;-82
2022/04/21 11:09:44;;;;;;;8.55;5.43;;;;;;;;;;5053113;28;20094;-82
2022/04/21 11:12:46;;;;;;;9.40;5.25;;;;;;;;;;5041823;28;20107;-82
2022/04/21 11:15:31;;;;;;;9.50;4.85;;;;;;;;;;5033804;28;20132;-82
2022/04/21 11:18:00;;;;;;;10.73;4.72;;;;;;;;;;5033479;28;20069;-82
2022/04/21 11:20:28;;;;;;;7.55;4.85;;;;;;;;;;5034529;28;20053;-82
2022/04/21 11:22:58;;;;;;;6.72;4.38;;;;;;;;;;5033748;28;20045;-82
2022/04/21 11:25:26;;;;;;;6.95;4.50;;;;;;;;;;5033371;28;20076;-82
2022/04/21 11:27:55;;;;;;;7.28;4.95;;;;;;;;;;5032098;28;20046;-82
2022/04/21 11:30:24;;;;;;;9.32;4.63;;;;;;;;;;5034069;28;20046;-82
2022/04/21 11:32:54;;;;;;;8.13;4.72;;;;;;;;;;5034064;28;20464;-82
2022/04/21 11:35:24;;;;;;;7.15;4.78;;;;;;;;;;5038181;28;20049;-82
2022/04/21 11:37:53;;;;;;;7.20;5.07;;;;;;;;;;5038669;28;20412;-82
2022/04/21 11:40:24;;;;;;;8.23;4.30;;;;;;;;;;5033115;28;20516;-82
2022/04/21 11:42:54;;;;;;;8.18;5.00;;;;;;;;;;5047185;28;20053;-82
2022/04/21 11:45:23;;;;;;;7.35;4.47;;;;;;;;;;5053373;28;20049;-82
2022/04/21 11:47:52;;;;;;;6.43;4.40;;;;;;;;;;5052594;28;20049;-82
2022/04/21 11:50:22;;;;;;;10.40;4.88;;;;;;;;;;5053252;28;20456;-82
2022/04/21 11:52:53;;;;;;;7.47;4.97;;;;;;;;;;5052938;28;20041;-82
2022/04/21 11:55:24;;;;;;;8.15;4.90;;;;;;;;;;5035144;28;20053;-82
2022/04/21 11:57:53;;;;;;;6.88;4.53;;;;;;;;;;5032548;28;20049;-82
2022/04/21 12:08:44;;;;;;;8.02;4.57;;;;;;;;;;5032696;28;20050;-82
2022/04/21 12:11:16;;;;;;;7.53;4.50;;;;;;;;;;5033103;28;20486;-82
2022/04/21 12:13:45;;;;;;;6.05;4.38;;;;;;;;;;5032954;28;20489;-82
2022/04/21 12:16:33;;;;;;;8.23;4.45;;;;;;;;;;5032839;28;20065;-82
2022/04/21 12:19:10;;;;;;;6.45;4.03;;;;;;;;;;5032952;28;20049;-82
2022/04/21 12:21:39;;;;;;;9.38;4.63;;;;;;;;;;5032839;28;20057;-82
2022/04/21 12:24:12;;;;;;;5.75;3.88;;;;;;;;;;5033160;28;20075;-82
2022/04/21 12:26:48;;;;;;;5.53;3.63;;;;;;;;;;5044618;28;20098;-82
2022/04/21 12:29:16;;;;;;;7.70;4.10;;;;;;;;;;5033931;28;20064;-82
2022/04/21 12:31:45;;;;;;;6.80;4.10;;;;;;;;;;5031960;28;20401;-82
2022/04/21 12:34:14;;;;;;;6.53;4.03;;;;;;;;;;5032438;28;20486;-82
2022/04/21 12:36:51;;;;;;;4.82;3.80;;;;;;;;;;5047521;28;20079;-82
2022/04/21 12:39:20;;;;;;;7.07;4.35;;;;;;;;;;5051696;28;20080;-82
2022/04/21 12:42:10;;;;;;;8.00;4.25;;;;;;;;;;5051475;28;20037;-82
2022/04/21 12:44:40;;;;;;;7.00;4.90;;;;;;;;;;5048501;28;20041;-82
2022/04/21 12:47:15;;;;;;;6.85;3.78;;;;;;;;;;5033004;28;20049;-82
2022/04/21 12:49:52;;;;;;;8.23;4.75;;;;;;;;;;5031524;28;20049;-82
2022/04/21 12:52:35;;;;;;;7.95;4.70;;;;;;;;;;5032301;28;20485;-82
2022/04/21 12:55:04;;;;;;;6.55;4.53;;;;;;;;;;5032277;28;20056;-82
2022/04/21 12:57:34;;;;;;;7.43;4.78;;;;;;;;;;5032421;28;20405;-82
2022/04/21 13:00:03;;;;;;;6.43;4.00;;;;;;;;;;5034646;28;20439;-82
2022/04/21 13:02:31;;;;;;;4.93;3.67;;;;;;;;;;5040466;28;20069;-82
2022/04/21 13:05:00;;;;;;;5.07;3.97;;;;;;;;;;5032442;28;20412;-82
2022/04/21 13:07:30;;;;;;;8.07;5.10;;;;;;;;;;5032404;28;20088;-81
2022/04/21 13:09:59;;;;;;;6.88;4.57;;;;;;;;;;5031989;28;20045;-82
2022/04/21 13:12:30;;;;;;;6.97;4.40;;;;;;;;;;5052201;28;20115;-82
2022/04/21 13:15:00;;;;;;;6.22;4.05;;;;;;;;;;5055933;28;20041;-82
2022/04/21 13:17:29;;;;;;;7.75;5.10;;;;;;;;;;5056699;28;20052;-82
2022/04/21 13:19:58;;;;;;;6.78;4.63;;;;;;;;;;5041134;28;20473;-82
2022/04/21 13:22:25;;;;;;;7.00;4.38;;;;;;;;;;5036320;28;20056;-82
2022/04/21 13:24:54;;;;;;;11.35;4.47;;;;;;;;;;5037516;28;20053;-82
2022/04/21 13:27:26;;;;;;;5.95;3.95;;;;;;;;;;5040870;28;20060;-81
2022/04/21 13:29:54;;;;;;;6.68;3.75;;;;;;;;;;5037578;28;20064;-82
2022/04/21 13:35:11;;;;;;;5.88;3.78;;;;;;;;;;5040373;28;20053;-81
2022/04/21 13:37:40;;;;;;;6.93;4.70;;;;;;;;;;5038221;28;20270;-81
2022/04/21 13:40:09;;;;;;;6.20;4.15;;;;;;;;;;5046496;28;20045;-81
2022/04/21 13:42:38;;;;;;;8.23;4.88;;;;;;;;;;5057357;28;20056;-82
2022/04/21 13:45:07;;;;;;;6.90;4.90;;;;;;;;;;5052153;28;20045;-82
2022/04/21 13:47:56;;;;;;;6.97;4.38;;;;;;;;;;5051151;28;20053;-82
2022/04/21 13:50:27;;;;;;;5.95;3.72;;;;;;;;;;5054013;28;20053;-82
2022/04/21 13:52:56;;;;;;;5.60;4.13;;;;;;;;;;5048584;28;20045;-82
2022/04/21 13:55:25;;;;;;;8.80;4.80;;;;;;;;;;5035831;28;20050;-82
2022/04/21 13:57:53;;;;;;;7.05;5.07;;;;;;;;;;5034945;28;20457;-81
2022/04/21 14:00:24;;;;;;;7.68;4.65;;;;;;;;;;5036441;28;20060;-82
2022/04/21 14:02:52;;;;;;;6.10;3.95;;;;;;;;;;5055207;28;20332;-82
2022/04/21 14:05:23;;;;;;;6.25;4.53;;;;;;;;;;5054794;28;20063;-82
2022/04/21 14:07:52;;;;;;;5.78;4.18;;;;;;;;;;5054920;28;20049;-81
2022/04/21 14:10:21;;;;;;;6.18;3.50;;;;;;;;;;5052489;28;20047;-82
2022/04/21 14:12:50;;;;;;;6.75;4.70;;;;;;;;;;5034983;28;20053;-82
2022/04/21 14:15:18;;;;;;;8.50;4.60;;;;;;;;;;5035069;28;20050;-82
2022/04/21 14:17:47;;;;;;;6.05;4.53;;;;;;;;;;5034489;28;20053;-82
2022/04/21 14:20:16;;;;;;;5.43;3.72;;;;;;;;;;5034872;28;20045;-82
2022/04/21 14:22:46;;;;;;;6.70;4.97;;;;;;;;;;5034852;28;20049;-82
2022/04/21 14:25:15;;;;;;;7.60;4.60;;;;;;;;;;5034773;28;20477;-82
2022/04/21 14:27:43;;;;;;;6.93;4.95;;;;;;;;;;5034562;28;20045;-82
2022/04/21 14:30:12;;;;;;;6.20;4.60;;;;;;;;;;5034504;28;20080;-82
2022/04/21 14:32:41;;;;;;;6.93;4.43;;;;;;;;;;5034564;28;20596;-82
2022/04/21 14:35:09;;;;;;;6.40;3.80;;;;;;;;;;5037125;28;20469;-82
2022/04/21 14:45:58;;;;;;;9.27;4.80;;;;;;;;;;5034512;28;20095;-82
2022/04/21 14:48:26;;;;;;;7.00;4.95;;;;;;;;;;5033426;28;20060;-82
2022/04/21 14:50:55;;;;;;;6.55;4.70;;;;;;;;;;5043259;28;20045;-81
2022/04/21 14:53:24;;;;;;;8.55;4.65;;;;;;;;;;5054189;28;20140;-82
2022/04/21 14:55:54;;;;;;;7.15;5.13;;;;;;;;;;5053648;28;20056;-82
2022/04/21 14:58:23;;;;;;;5.47;4.22;;;;;;;;;;5055425;28;20051;-82
2022/04/21 15:00:51;;;;;;;6.25;4.72;;;;;;;;;;5052910;28;20049;-82
2022/04/21 15:03:20;;;;;;;7.57;4.65;;;;;;;;;;5040465;28;20052;-82
2022/04/21 15:05:48;;;;;;;6.53;4.60;;;;;;;;;;5039640;28;20057;-82
2022/04/21 15:08:17;;;;;;;6.57;4.93;;;;;;;;;;5040334;28;20080;-82
2022/04/21 15:10:54;;;;;;;6.63;4.07;;;;;;;;;;5040187;28;20045;-82
2022/04/21 15:13:23;;;;;;;5.93;3.92;;;;;;;;;;5039291;28;20085;-82
2022/04/21 15:15:52;;;;;;;7.65;4.70;;;;;;;;;;5038963;28;20054;-82
2022/04/21 15:18:21;;;;;;;6.53;4.65;;;;;;;;;;5038842;28;20045;-82
2022/04/21 15:20:50;;;;;;;5.65;4.10;;;;;;;;;;5038980;28;20105;-82
2022/04/21 15:23:18;;;;;;;6.82;4.35;;;;;;;;;;5036583;28;20076;-82
2022/04/21 15:25:47;;;;;;;6.50;4.35;;;;;;;;;;5038312;28;20439;-82
2022/04/21 15:28:17;;;;;;;6.97;4.30;;;;;;;;;;5052902;28;20138;-82
2022/04/21 15:30:45;;;;;;;7.13;4.53;;;;;;;;;;5053334;28;20098;-82
2022/04/21 15:33:14;;;;;;;6.60;4.30;;;;;;;;;;5053218;28;20492;-82
2022/04/21 15:35:42;;;;;;;7.85;4.43;;;;;;;;;;5047197;28;20049;-82
2022/04/21 15:38:14;;;;;;;6.15;4.10;;;;;;;;;;5053323;28;20049;-82
2022/04/21 15:40:42;;;;;;;8.05;4.68;;;;;;;;;;5052855;28;20075;-82
2022/04/21 15:43:11;;;;;;;6.57;4.07;;;;;;;;;;5053591;28;20045;-81
2022/04/21 15:45:42;;;;;;;9.02;4.35;;;;;;;;;;5053252;28;20081;-82
2022/04/21 15:48:11;;;;;;;8.60;4.47;;;;;;;;;;5052527;28;20048;-82
2022/04/21 15:50:39;;;;;;;6.40;4.20;;;;;;;;;;5053155;28;20828;-82
2022/04/21 15:58:49;;;;;;;5.78;3.88;;;;;;;;;;5047884;28;20496;-82
2022/04/21 16:01:19;;;;;;;9.35;4.13;;;;;;;;;;5052374;28;20529;-82